sensor_id;sensor_type;location;lat;lon;timestamp;temperature;humidity
4615;DHT22;2320;51.362;6.946;2022-12-05T00:01:27;4.20;99.90
4615;DHT22;2320;51.362;6.946;2022-12-05T00:03:54;4.10;99.90
4615;DHT22;2320;51.362;6.946;2022-12-05T00:06:19;3.90;99.90
4615;DHT22;2320;51.362;6.946;2022-12-05T00:08:45;3.80;99.90
4615;DHT22;2320;51.362;6.946;2022-12-05T00:11:18;3.80;99.90
4615;DHT22;2320;51.362;6.946;2022-12-05T00:13:44;3.80;99.90
4615;DHT22;2320;51.362;6.946;2022-12-05T00:16:11;3.80;99.90
4615;DHT22;2320;51.362;6.946;2022-12-05T00:18:37;3.80;99.90
4615;DHT22;2320;51.362;6.946;2022-12-05T00:21:03;3.90;99.90
4615;DHT22;2320;51.362;6.946;2022-12-05T00:23:28;4.00;99.90
4615;DHT22;2320;51.362;6.946;2022-12-05T00:25:54;3.90;99.90
4615;DHT22;2320;51.362;6.946;2022-12-05T00:28:19;3.90;99.90
4615;DHT22;2320;51.362;6.946;2022-12-05T00:30:45;3.90;99.90
4615;DHT22;2320;51.362;6.946;2022-12-05T00:33:10;3.80;99.90
4615;DHT22;2320;51.362;6.946;2022-12-05T00:35:35;3.90;99.90
4615;DHT22;2320;51.362;6.946;2022-12-05T00:38:01;3.80;99.90
4615;DHT22;2320;51.362;6.946;2022-12-05T00:40:26;3.70;99.90
4615;DHT22;2320;51.362;6.946;2022-12-05T00:42:52;3.90;99.90
4615;DHT22;2320;51.362;6.946;2022-12-05T00:45:17;3.80;99.90
4615;DHT22;2320;51.362;6.946;2022-12-05T00:47:43;4.00;99.90
4615;DHT22;2320;51.362;6.946;2022-12-05T00:50:08;3.90;99.90
4615;DHT22;2320;51.362;6.946;2022-12-05T00:52:34;3.90;99.90
4615;DHT22;2320;51.362;6.946;2022-12-05T00:54:59;4.00;99.90
4615;DHT22;2320;51.362;6.946;2022-12-05T00:57:25;3.90;99.90
4615;DHT22;2320;51.362;6.946;2022-12-05T00:59:50;3.90;99.90
4615;DHT22;2320;51.362;6.946;2022-12-05T01:02:16;4.00;99.90
4615;DHT22;2320;51.362;6.946;2022-12-05T01:04:41;4.00;99.90
4615;DHT22;2320;51.362;6.946;2022-12-05T01:07:07;3.90;99.90
4615;DHT22;2320;51.362;6.946;2022-12-05T01:09:32;4.00;99.90
4615;DHT22;2320;51.362;6.946;2022-12-05T01:11:58;4.00;99.90
4615;DHT22;2320;51.362;6.946;2022-12-05T01:14:24;4.00;99.90
4615;DHT22;2320;51.362;6.946;2022-12-05T01:16:51;4.00;99.90
4615;DHT22;2320;51.362;6.946;2022-12-05T01:19:18;3.90;99.90
4615;DHT22;2320;51.362;6.946;2022-12-05T01:21:44;3.90;99.90
4615;DHT22;2320;51.362;6.946;2022-12-05T01:24:10;3.80;99.90
4615;DHT22;2320;51.362;6.946;2022-12-05T01:26:36;4.00;99.90
4615;DHT22;2320;51.362;6.946;2022-12-05T01:29:02;4.00;99.90
4615;DHT22;2320;51.362;6.946;2022-12-05T01:31:31;4.00;99.90
4615;DHT22;2320;51.362;6.946;2022-12-05T01:33:58;3.90;99.90
4615;DHT22;2320;51.362;6.946;2022-12-05T01:36:25;3.80;99.90
4615;DHT22;2320;51.362;6.946;2022-12-05T01:38:51;3.90;99.90
4615;DHT22;2320;51.362;6.946;2022-12-05T01:41:19;3.90;99.90
4615;DHT22;2320;51.362;6.946;2022-12-05T01:46:19;3.90;99.90
4615;DHT22;2320;51.362;6.946;2022-12-05T01:48:44;3.90;99.90
4615;DHT22;2320;51.362;6.946;2022-12-05T01:51:10;3.90;99.90
4615;DHT22;2320;51.362;6.946;2022-12-05T01:53:35;3.90;99.90
4615;DHT22;2320;51.362;6.946;2022-12-05T01:56:01;3.80;99.90
4615;DHT22;2320;51.362;6.946;2022-12-05T01:58:28;3.80;99.90
4615;DHT22;2320;51.362;6.946;2022-12-05T02:00:55;3.90;99.90
4615;DHT22;2320;51.362;6.946;2022-12-05T02:03:20;4.10;99.90
4615;DHT22;2320;51.362;6.946;2022-12-05T02:05:47;4.00;99.90
4615;DHT22;2320;51.362;6.946;2022-12-05T02:08:14;4.00;99.90
4615;DHT22;2320;51.362;6.946;2022-12-05T02:10:40;3.90;99.90
4615;DHT22;2320;51.362;6.946;2022-12-05T02:13:17;3.90;99.90
4615;DHT22;2320;51.362;6.946;2022-12-05T02:15:52;3.90;99.90
4615;DHT22;2320;51.362;6.946;2022-12-05T02:18:43;3.90;99.90
4615;DHT22;2320;51.362;6.946;2022-12-05T02:28:50;3.80;99.90
4615;DHT22;2320;51.362;6.946;2022-12-05T02:31:21;3.80;99.90
4615;DHT22;2320;51.362;6.946;2022-12-05T02:33:52;3.90;99.90
4615;DHT22;2320;51.362;6.946;2022-12-05T02:36:24;3.90;99.90
4615;DHT22;2320;51.362;6.946;2022-12-05T02:41:35;4.00;99.90
4615;DHT22;2320;51.362;6.946;2022-12-05T02:44:10;4.00;99.90
4615;DHT22;2320;51.362;6.946;2022-12-05T02:46:38;4.00;99.90
4615;DHT22;2320;51.362;6.946;2022-12-05T02:49:05;3.90;99.90
4615;DHT22;2320;51.362;6.946;2022-12-05T02:51:34;3.90;99.90
4615;DHT22;2320;51.362;6.946;2022-12-05T02:54:03;3.90;99.90
4615;DHT22;2320;51.362;6.946;2022-12-05T02:56:30;3.90;99.90
4615;DHT22;2320;51.362;6.946;2022-12-05T02:58:57;3.90;99.90
4615;DHT22;2320;51.362;6.946;2022-12-05T03:01:25;3.90;99.90
4615;DHT22;2320;51.362;6.946;2022-12-05T03:03:53;3.90;99.90
4615;DHT22;2320;51.362;6.946;2022-12-05T03:06:24;4.00;99.90
4615;DHT22;2320;51.362;6.946;2022-12-05T03:08:54;4.10;99.90
4615;DHT22;2320;51.362;6.946;2022-12-05T03:11:22;4.10;99.90
4615;DHT22;2320;51.362;6.946;2022-12-05T03:13:48;4.00;99.90
4615;DHT22;2320;51.362;6.946;2022-12-05T03:16:19;3.90;99.90
4615;DHT22;2320;51.362;6.946;2022-12-05T03:18:51;3.80;99.90
4615;DHT22;2320;51.362;6.946;2022-12-05T03:21:21;3.70;99.90
4615;DHT22;2320;51.362;6.946;2022-12-05T03:23:53;3.50;99.90
4615;DHT22;2320;51.362;6.946;2022-12-05T03:28:53;3.60;99.90
4615;DHT22;2320;51.362;6.946;2022-12-05T03:32:07;3.60;99.90
4615;DHT22;2320;51.362;6.946;2022-12-05T03:34:09;3.60;99.90
4615;DHT22;2320;51.362;6.946;2022-12-05T03:36:38;3.60;99.90
4615;DHT22;2320;51.362;6.946;2022-12-05T03:39:11;3.40;99.90
4615;DHT22;2320;51.362;6.946;2022-12-05T03:41:54;3.40;99.90
4615;DHT22;2320;51.362;6.946;2022-12-05T03:44:27;3.40;99.90
4615;DHT22;2320;51.362;6.946;2022-12-05T03:46:57;3.40;99.90
4615;DHT22;2320;51.362;6.946;2022-12-05T03:49:33;3.50;99.90
4615;DHT22;2320;51.362;6.946;2022-12-05T03:54:33;3.60;99.90
4615;DHT22;2320;51.362;6.946;2022-12-05T03:57:04;3.60;99.90
4615;DHT22;2320;51.362;6.946;2022-12-05T03:59:36;3.70;99.90
4615;DHT22;2320;51.362;6.946;2022-12-05T04:02:06;3.60;99.90
4615;DHT22;2320;51.362;6.946;2022-12-05T04:04:33;3.60;99.90
4615;DHT22;2320;51.362;6.946;2022-12-05T04:07:00;3.70;99.90
4615;DHT22;2320;51.362;6.946;2022-12-05T04:09:34;3.60;99.90
4615;DHT22;2320;51.362;6.946;2022-12-05T04:12:04;3.70;99.90
4615;DHT22;2320;51.362;6.946;2022-12-05T04:14:32;3.80;99.90
4615;DHT22;2320;51.362;6.946;2022-12-05T04:17:01;3.60;99.90
4615;DHT22;2320;51.362;6.946;2022-12-05T04:19:49;3.50;99.90
4615;DHT22;2320;51.362;6.946;2022-12-05T04:22:36;3.50;99.90
4615;DHT22;2320;51.362;6.946;2022-12-05T04:25:03;3.60;99.90
4615;DHT22;2320;51.362;6.946;2022-12-05T04:30:18;3.80;99.90
4615;DHT22;2320;51.362;6.946;2022-12-05T04:32:45;3.80;99.90
4615;DHT22;2320;51.362;6.946;2022-12-05T04:35:14;3.70;99.90
4615;DHT22;2320;51.362;6.946;2022-12-05T04:37:41;3.70;99.90
4615;DHT22;2320;51.362;6.946;2022-12-05T04:40:10;3.70;99.90
4615;DHT22;2320;51.362;6.946;2022-12-05T04:42:36;3.60;99.90
4615;DHT22;2320;51.362;6.946;2022-12-05T04:45:04;3.60;99.90
4615;DHT22;2320;51.362;6.946;2022-12-05T04:47:34;3.70;99.90
4615;DHT22;2320;51.362;6.946;2022-12-05T04:50:00;3.70;99.90
4615;DHT22;2320;51.362;6.946;2022-12-05T04:52:27;3.70;99.90
4615;DHT22;2320;51.362;6.946;2022-12-05T04:55:12;3.70;99.90
4615;DHT22;2320;51.362;6.946;2022-12-05T04:57:41;3.70;99.90
4615;DHT22;2320;51.362;6.946;2022-12-05T05:00:08;3.70;99.90
4615;DHT22;2320;51.362;6.946;2022-12-05T05:02:44;3.80;99.90
4615;DHT22;2320;51.362;6.946;2022-12-05T05:05:11;3.80;99.90
4615;DHT22;2320;51.362;6.946;2022-12-05T05:07:48;3.80;99.90
4615;DHT22;2320;51.362;6.946;2022-12-05T05:10:15;3.80;99.90
4615;DHT22;2320;51.362;6.946;2022-12-05T05:12:41;3.70;99.90
4615;DHT22;2320;51.362;6.946;2022-12-05T05:15:07;3.80;99.90
4615;DHT22;2320;51.362;6.946;2022-12-05T05:17:32;3.80;99.90
4615;DHT22;2320;51.362;6.946;2022-12-05T05:19:58;4.00;99.90
4615;DHT22;2320;51.362;6.946;2022-12-05T05:22:46;3.90;99.90
4615;DHT22;2320;51.362;6.946;2022-12-05T05:25:12;4.00;99.90
4615;DHT22;2320;51.362;6.946;2022-12-05T05:27:37;3.80;99.90
4615;DHT22;2320;51.362;6.946;2022-12-05T05:30:03;3.80;99.90
4615;DHT22;2320;51.362;6.946;2022-12-05T05:32:31;3.80;99.90
4615;DHT22;2320;51.362;6.946;2022-12-05T05:34:56;3.60;99.90
4615;DHT22;2320;51.362;6.946;2022-12-05T05:37:22;3.80;99.90
4615;DHT22;2320;51.362;6.946;2022-12-05T05:39:47;3.80;99.90
4615;DHT22;2320;51.362;6.946;2022-12-05T05:42:13;3.70;99.90
4615;DHT22;2320;51.362;6.946;2022-12-05T05:44:38;3.90;99.90
4615;DHT22;2320;51.362;6.946;2022-12-05T05:47:04;3.80;99.90
4615;DHT22;2320;51.362;6.946;2022-12-05T05:49:29;3.80;99.90
4615;DHT22;2320;51.362;6.946;2022-12-05T05:51:55;3.80;99.90
4615;DHT22;2320;51.362;6.946;2022-12-05T05:54:20;3.80;99.90
4615;DHT22;2320;51.362;6.946;2022-12-05T05:56:45;3.80;99.90
4615;DHT22;2320;51.362;6.946;2022-12-05T05:59:11;3.90;99.90
4615;DHT22;2320;51.362;6.946;2022-12-05T06:01:36;3.90;99.90
4615;DHT22;2320;51.362;6.946;2022-12-05T06:04:02;3.90;99.90
4615;DHT22;2320;51.362;6.946;2022-12-05T06:06:27;4.00;99.90
4615;DHT22;2320;51.362;6.946;2022-12-05T06:08:53;3.80;99.90
4615;DHT22;2320;51.362;6.946;2022-12-05T06:11:22;3.80;99.90
4615;DHT22;2320;51.362;6.946;2022-12-05T06:13:48;3.90;99.90
4615;DHT22;2320;51.362;6.946;2022-12-05T06:16:14;3.90;99.90
4615;DHT22;2320;51.362;6.946;2022-12-05T06:18:40;3.90;99.90
4615;DHT22;2320;51.362;6.946;2022-12-05T06:21:06;3.80;99.90
4615;DHT22;2320;51.362;6.946;2022-12-05T06:23:35;3.90;99.90
4615;DHT22;2320;51.362;6.946;2022-12-05T06:26:02;4.00;99.90
4615;DHT22;2320;51.362;6.946;2022-12-05T06:28:28;3.90;99.90
4615;DHT22;2320;51.362;6.946;2022-12-05T06:30:53;3.90;99.90
4615;DHT22;2320;51.362;6.946;2022-12-05T06:33:19;3.80;99.90
4615;DHT22;2320;51.362;6.946;2022-12-05T06:35:44;3.80;99.90
4615;DHT22;2320;51.362;6.946;2022-12-05T06:38:10;3.80;99.90
4615;DHT22;2320;51.362;6.946;2022-12-05T06:40:42;3.80;99.90
4615;DHT22;2320;51.362;6.946;2022-12-05T06:43:08;3.70;99.90
4615;DHT22;2320;51.362;6.946;2022-12-05T06:45:35;3.70;99.90
4615;DHT22;2320;51.362;6.946;2022-12-05T06:48:01;3.60;99.90
4615;DHT22;2320;51.362;6.946;2022-12-05T06:50:27;3.60;99.90
4615;DHT22;2320;51.362;6.946;2022-12-05T06:52:52;3.50;99.90
4615;DHT22;2320;51.362;6.946;2022-12-05T06:55:18;3.50;99.90
4615;DHT22;2320;51.362;6.946;2022-12-05T06:57:43;3.60;99.90
4615;DHT22;2320;51.362;6.946;2022-12-05T07:00:09;3.50;99.90
4615;DHT22;2320;51.362;6.946;2022-12-05T07:02:53;3.60;99.90
4615;DHT22;2320;51.362;6.946;2022-12-05T07:05:18;3.60;99.90
4615;DHT22;2320;51.362;6.946;2022-12-05T07:07:44;3.60;99.90
4615;DHT22;2320;51.362;6.946;2022-12-05T07:10:09;3.50;99.90
4615;DHT22;2320;51.362;6.946;2022-12-05T07:12:35;3.40;99.90
4615;DHT22;2320;51.362;6.946;2022-12-05T07:15:00;3.50;99.90
4615;DHT22;2320;51.362;6.946;2022-12-05T07:17:26;3.60;99.90
4615;DHT22;2320;51.362;6.946;2022-12-05T07:19:51;3.70;99.90
4615;DHT22;2320;51.362;6.946;2022-12-05T07:22:18;3.50;99.90
4615;DHT22;2320;51.362;6.946;2022-12-05T07:24:44;3.50;99.90
4615;DHT22;2320;51.362;6.946;2022-12-05T07:27:10;3.40;99.90
4615;DHT22;2320;51.362;6.946;2022-12-05T07:29:35;3.40;99.90
4615;DHT22;2320;51.362;6.946;2022-12-05T07:32:01;3.60;99.90
4615;DHT22;2320;51.362;6.946;2022-12-05T07:34:26;3.50;99.90
4615;DHT22;2320;51.362;6.946;2022-12-05T07:36:52;3.40;99.90
4615;DHT22;2320;51.362;6.946;2022-12-05T07:39:17;3.30;99.90
4615;DHT22;2320;51.362;6.946;2022-12-05T07:41:43;3.30;99.90
4615;DHT22;2320;51.362;6.946;2022-12-05T07:44:09;3.40;99.90
4615;DHT22;2320;51.362;6.946;2022-12-05T07:46:35;3.40;99.90
4615;DHT22;2320;51.362;6.946;2022-12-05T07:49:00;3.30;99.90
4615;DHT22;2320;51.362;6.946;2022-12-05T07:51:26;3.40;99.90
4615;DHT22;2320;51.362;6.946;2022-12-05T07:53:51;3.40;99.90
4615;DHT22;2320;51.362;6.946;2022-12-05T07:56:17;3.30;99.90
4615;DHT22;2320;51.362;6.946;2022-12-05T07:58:43;3.40;99.90
4615;DHT22;2320;51.362;6.946;2022-12-05T08:01:10;3.30;99.90
4615;DHT22;2320;51.362;6.946;2022-12-05T08:03:36;3.40;99.90
4615;DHT22;2320;51.362;6.946;2022-12-05T08:06:05;3.40;99.90
4615;DHT22;2320;51.362;6.946;2022-12-05T08:08:31;3.30;99.90
4615;DHT22;2320;51.362;6.946;2022-12-05T08:11:01;3.30;99.90
4615;DHT22;2320;51.362;6.946;2022-12-05T08:13:27;3.40;99.90
4615;DHT22;2320;51.362;6.946;2022-12-05T08:15:53;3.40;99.90
4615;DHT22;2320;51.362;6.946;2022-12-05T08:18:18;3.50;99.90
4615;DHT22;2320;51.362;6.946;2022-12-05T08:20:44;3.50;99.90
4615;DHT22;2320;51.362;6.946;2022-12-05T08:23:09;3.50;99.90
4615;DHT22;2320;51.362;6.946;2022-12-05T08:25:35;3.50;99.90
4615;DHT22;2320;51.362;6.946;2022-12-05T08:28:02;3.50;99.90
4615;DHT22;2320;51.362;6.946;2022-12-05T08:30:28;3.50;99.90
4615;DHT22;2320;51.362;6.946;2022-12-05T08:32:53;3.70;99.90
4615;DHT22;2320;51.362;6.946;2022-12-05T08:35:21;3.70;99.90
4615;DHT22;2320;51.362;6.946;2022-12-05T08:37:46;3.50;99.90
4615;DHT22;2320;51.362;6.946;2022-12-05T08:40:12;3.40;99.90
4615;DHT22;2320;51.362;6.946;2022-12-05T08:42:37;3.30;99.90
4615;DHT22;2320;51.362;6.946;2022-12-05T08:45:03;3.20;99.90
4615;DHT22;2320;51.362;6.946;2022-12-05T08:47:28;2.90;99.90
4615;DHT22;2320;51.362;6.946;2022-12-05T08:49:54;3.00;99.90
4615;DHT22;2320;51.362;6.946;2022-12-05T08:52:19;3.20;99.90
4615;DHT22;2320;51.362;6.946;2022-12-05T08:54:47;3.10;99.90
4615;DHT22;2320;51.362;6.946;2022-12-05T08:57:12;3.10;99.90
4615;DHT22;2320;51.362;6.946;2022-12-05T08:59:38;3.30;99.90
4615;DHT22;2320;51.362;6.946;2022-12-05T09:02:03;3.30;99.90
4615;DHT22;2320;51.362;6.946;2022-12-05T09:04:28;3.30;99.90
4615;DHT22;2320;51.362;6.946;2022-12-05T09:06:54;3.30;99.90
4615;DHT22;2320;51.362;6.946;2022-12-05T09:09:19;3.40;99.90
4615;DHT22;2320;51.362;6.946;2022-12-05T09:11:45;3.30;99.90
4615;DHT22;2320;51.362;6.946;2022-12-05T09:14:13;3.40;99.90
4615;DHT22;2320;51.362;6.946;2022-12-05T09:16:39;3.50;99.90
4615;DHT22;2320;51.362;6.946;2022-12-05T09:19:15;3.40;99.90
4615;DHT22;2320;51.362;6.946;2022-12-05T09:21:41;3.40;99.90
4615;DHT22;2320;51.362;6.946;2022-12-05T09:24:08;3.40;99.90
4615;DHT22;2320;51.362;6.946;2022-12-05T09:26:34;3.40;99.90
4615;DHT22;2320;51.362;6.946;2022-12-05T09:29:00;3.40;99.90
4615;DHT22;2320;51.362;6.946;2022-12-05T09:31:26;3.40;99.90
4615;DHT22;2320;51.362;6.946;2022-12-05T09:33:51;3.50;99.90
4615;DHT22;2320;51.362;6.946;2022-12-05T09:36:18;3.60;99.90
4615;DHT22;2320;51.362;6.946;2022-12-05T09:38:44;3.70;99.90
4615;DHT22;2320;51.362;6.946;2022-12-05T09:43:42;3.70;99.90
4615;DHT22;2320;51.362;6.946;2022-12-05T09:46:20;3.80;99.90
4615;DHT22;2320;51.362;6.946;2022-12-05T09:48:48;3.80;99.90
4615;DHT22;2320;51.362;6.946;2022-12-05T09:51:14;3.80;99.90
4615;DHT22;2320;51.362;6.946;2022-12-05T09:53:40;3.90;99.90
4615;DHT22;2320;51.362;6.946;2022-12-05T09:58:41;3.70;99.90
4615;DHT22;2320;51.362;6.946;2022-12-05T10:06:22;3.80;99.90
4615;DHT22;2320;51.362;6.946;2022-12-05T10:16:31;3.70;99.90
4615;DHT22;2320;51.362;6.946;2022-12-05T10:19:01;3.80;99.90
4615;DHT22;2320;51.362;6.946;2022-12-05T10:21:29;3.90;99.90
4615;DHT22;2320;51.362;6.946;2022-12-05T10:26:21;4.10;99.90
4615;DHT22;2320;51.362;6.946;2022-12-05T10:31:32;4.40;99.90
4615;DHT22;2320;51.362;6.946;2022-12-05T10:34:03;4.30;99.90
4615;DHT22;2320;51.362;6.946;2022-12-05T10:36:30;4.30;99.90
4615;DHT22;2320;51.362;6.946;2022-12-05T10:38:56;4.20;99.90
4615;DHT22;2320;51.362;6.946;2022-12-05T10:41:23;4.20;99.90
4615;DHT22;2320;51.362;6.946;2022-12-05T10:43:48;4.10;99.90
4615;DHT22;2320;51.362;6.946;2022-12-05T10:46:14;4.20;99.90
4615;DHT22;2320;51.362;6.946;2022-12-05T10:48:41;4.30;99.90
4615;DHT22;2320;51.362;6.946;2022-12-05T10:51:10;4.40;99.90
4615;DHT22;2320;51.362;6.946;2022-12-05T10:53:48;4.30;99.90
4615;DHT22;2320;51.362;6.946;2022-12-05T10:58:57;4.50;99.90
4615;DHT22;2320;51.362;6.946;2022-12-05T11:01:23;4.30;99.90
4615;DHT22;2320;51.362;6.946;2022-12-05T11:03:55;4.30;99.90
4615;DHT22;2320;51.362;6.946;2022-12-05T11:06:24;4.40;99.90
4615;DHT22;2320;51.362;6.946;2022-12-05T11:08:51;4.50;99.90
4615;DHT22;2320;51.362;6.946;2022-12-05T11:11:18;4.50;99.90
4615;DHT22;2320;51.362;6.946;2022-12-05T11:13:52;4.50;99.90
4615;DHT22;2320;51.362;6.946;2022-12-05T11:16:23;4.30;99.90
4615;DHT22;2320;51.362;6.946;2022-12-05T11:18:48;4.40;99.90
4615;DHT22;2320;51.362;6.946;2022-12-05T11:21:14;4.40;99.90
4615;DHT22;2320;51.362;6.946;2022-12-05T11:23:42;4.20;99.90
4615;DHT22;2320;51.362;6.946;2022-12-05T11:26:15;4.50;99.90
4615;DHT22;2320;51.362;6.946;2022-12-05T11:28:41;4.30;99.90
4615;DHT22;2320;51.362;6.946;2022-12-05T11:33:41;4.20;99.90
4615;DHT22;2320;51.362;6.946;2022-12-05T11:36:19;4.30;99.90
4615;DHT22;2320;51.362;6.946;2022-12-05T11:38:46;4.30;99.90
4615;DHT22;2320;51.362;6.946;2022-12-05T11:41:27;4.30;99.90
4615;DHT22;2320;51.362;6.946;2022-12-05T11:57:01;4.10;99.90
4615;DHT22;2320;51.362;6.946;2022-12-05T11:59:37;4.00;99.90
4615;DHT22;2320;51.362;6.946;2022-12-05T12:05:13;3.90;99.90
4615;DHT22;2320;51.362;6.946;2022-12-05T12:07:48;4.00;99.90
4615;DHT22;2320;51.362;6.946;2022-12-05T12:10:21;3.90;99.90
4615;DHT22;2320;51.362;6.946;2022-12-05T12:18:04;3.80;99.90
4615;DHT22;2320;51.362;6.946;2022-12-05T12:40:55;3.50;99.90
4615;DHT22;2320;51.362;6.946;2022-12-05T12:51:03;3.50;99.90
4615;DHT22;2320;51.362;6.946;2022-12-05T13:01:19;3.30;99.90
4615;DHT22;2320;51.362;6.946;2022-12-05T13:03:49;3.20;99.90
4615;DHT22;2320;51.362;6.946;2022-12-05T13:06:29;3.10;99.90
4615;DHT22;2320;51.362;6.946;2022-12-05T13:09:42;3.30;99.90
4615;DHT22;2320;51.362;6.946;2022-12-05T13:11:42;3.30;99.90
4615;DHT22;2320;51.362;6.946;2022-12-05T13:14:10;3.10;99.90
4615;DHT22;2320;51.362;6.946;2022-12-05T13:16:38;3.00;99.90
4615;DHT22;2320;51.362;6.946;2022-12-05T13:19:04;3.00;99.90
4615;DHT22;2320;51.362;6.946;2022-12-05T13:21:31;2.80;99.90
4615;DHT22;2320;51.362;6.946;2022-12-05T13:23:56;2.90;99.90
4615;DHT22;2320;51.362;6.946;2022-12-05T13:26:31;2.80;99.90
4615;DHT22;2320;51.362;6.946;2022-12-05T13:28:59;2.90;99.90
4615;DHT22;2320;51.362;6.946;2022-12-05T13:31:41;2.80;99.90
4615;DHT22;2320;51.362;6.946;2022-12-05T13:36:53;2.90;99.90
4615;DHT22;2320;51.362;6.946;2022-12-05T13:39:38;2.90;99.90
4615;DHT22;2320;51.362;6.946;2022-12-05T13:42:23;2.80;99.90
4615;DHT22;2320;51.362;6.946;2022-12-05T13:44:50;2.90;99.90
4615;DHT22;2320;51.362;6.946;2022-12-05T13:49:46;2.80;99.90
4615;DHT22;2320;51.362;6.946;2022-12-05T13:52:24;2.70;99.90
4615;DHT22;2320;51.362;6.946;2022-12-05T13:55:01;2.60;99.90
4615;DHT22;2320;51.362;6.946;2022-12-05T13:57:49;2.50;99.90
4615;DHT22;2320;51.362;6.946;2022-12-05T14:07:51;2.30;99.90
4615;DHT22;2320;51.362;6.946;2022-12-05T14:12:55;2.30;99.90
4615;DHT22;2320;51.362;6.946;2022-12-05T14:17:56;2.30;99.90
4615;DHT22;2320;51.362;6.946;2022-12-05T14:20:25;2.50;99.90
4615;DHT22;2320;51.362;6.946;2022-12-05T14:23:08;2.30;99.90
4615;DHT22;2320;51.362;6.946;2022-12-05T14:25:44;2.40;99.90
4615;DHT22;2320;51.362;6.946;2022-12-05T14:33:27;2.00;99.90
4615;DHT22;2320;51.362;6.946;2022-12-05T14:35:52;1.90;99.90
4615;DHT22;2320;51.362;6.946;2022-12-05T14:38:27;1.90;99.90
4615;DHT22;2320;51.362;6.946;2022-12-05T14:40:54;1.90;99.90
4615;DHT22;2320;51.362;6.946;2022-12-05T14:43:25;1.80;99.90
4615;DHT22;2320;51.362;6.946;2022-12-05T14:48:30;1.80;99.90
4615;DHT22;2320;51.362;6.946;2022-12-05T14:50:57;1.70;99.90
4615;DHT22;2320;51.362;6.946;2022-12-05T14:53:31;1.70;99.90
4615;DHT22;2320;51.362;6.946;2022-12-05T14:58:40;1.60;99.90
4615;DHT22;2320;51.362;6.946;2022-12-05T15:01:12;1.80;99.90
4615;DHT22;2320;51.362;6.946;2022-12-05T15:06:27;1.90;99.90
4615;DHT22;2320;51.362;6.946;2022-12-05T15:08:55;1.80;99.90
4615;DHT22;2320;51.362;6.946;2022-12-05T15:11:22;1.80;99.90
4615;DHT22;2320;51.362;6.946;2022-12-05T15:13:59;1.70;99.90
4615;DHT22;2320;51.362;6.946;2022-12-05T15:16:25;1.70;99.90
4615;DHT22;2320;51.362;6.946;2022-12-05T15:18:58;1.70;99.90
4615;DHT22;2320;51.362;6.946;2022-12-05T15:24:03;1.70;99.90
4615;DHT22;2320;51.362;6.946;2022-12-05T15:26:39;1.70;99.90
4615;DHT22;2320;51.362;6.946;2022-12-05T15:29:07;1.60;99.90
4615;DHT22;2320;51.362;6.946;2022-12-05T15:31:43;1.70;99.90
4615;DHT22;2320;51.362;6.946;2022-12-05T15:34:23;1.70;99.90
4615;DHT22;2320;51.362;6.946;2022-12-05T15:39:48;1.70;99.90
4615;DHT22;2320;51.362;6.946;2022-12-05T15:42:14;1.70;99.90
4615;DHT22;2320;51.362;6.946;2022-12-05T15:44:40;1.70;99.90
4615;DHT22;2320;51.362;6.946;2022-12-05T15:47:16;1.70;99.90
4615;DHT22;2320;51.362;6.946;2022-12-05T15:49:43;1.70;99.90
4615;DHT22;2320;51.362;6.946;2022-12-05T15:54:41;1.70;99.90
4615;DHT22;2320;51.362;6.946;2022-12-05T15:57:08;1.70;99.90
4615;DHT22;2320;51.362;6.946;2022-12-05T15:59:39;1.70;99.90
4615;DHT22;2320;51.362;6.946;2022-12-05T16:02:09;1.70;99.90
4615;DHT22;2320;51.362;6.946;2022-12-05T16:04:47;1.70;99.90
4615;DHT22;2320;51.362;6.946;2022-12-05T16:07:13;1.70;99.90
4615;DHT22;2320;51.362;6.946;2022-12-05T16:09:40;1.70;99.90
4615;DHT22;2320;51.362;6.946;2022-12-05T16:12:18;1.70;99.90
4615;DHT22;2320;51.362;6.946;2022-12-05T16:14:44;1.80;99.90
4615;DHT22;2320;51.362;6.946;2022-12-05T16:17:14;1.70;99.90
4615;DHT22;2320;51.362;6.946;2022-12-05T16:19:40;1.80;99.90
4615;DHT22;2320;51.362;6.946;2022-12-05T16:22:16;1.70;99.90
4615;DHT22;2320;51.362;6.946;2022-12-05T16:25:02;1.70;99.90
4615;DHT22;2320;51.362;6.946;2022-12-05T16:27:35;1.70;99.90
4615;DHT22;2320;51.362;6.946;2022-12-05T16:32:33;1.70;99.90
4615;DHT22;2320;51.362;6.946;2022-12-05T16:34:59;1.70;99.90
4615;DHT22;2320;51.362;6.946;2022-12-05T16:37:26;1.70;99.90
4615;DHT22;2320;51.362;6.946;2022-12-05T16:39:52;1.60;99.90
4615;DHT22;2320;51.362;6.946;2022-12-05T16:42:24;1.70;99.90
4615;DHT22;2320;51.362;6.946;2022-12-05T16:44:54;1.70;99.90
4615;DHT22;2320;51.362;6.946;2022-12-05T16:50:39;1.70;99.90
4615;DHT22;2320;51.362;6.946;2022-12-05T16:55:36;1.70;99.90
4615;DHT22;2320;51.362;6.946;2022-12-05T16:58:02;1.80;99.90
4615;DHT22;2320;51.362;6.946;2022-12-05T17:00:28;1.90;99.90
4615;DHT22;2320;51.362;6.946;2022-12-05T17:02:55;1.80;99.90
4615;DHT22;2320;51.362;6.946;2022-12-05T17:05:22;1.80;99.90
4615;DHT22;2320;51.362;6.946;2022-12-05T17:07:48;1.80;99.90
4615;DHT22;2320;51.362;6.946;2022-12-05T17:10:13;1.80;99.90
4615;DHT22;2320;51.362;6.946;2022-12-05T17:12:39;1.80;99.90
4615;DHT22;2320;51.362;6.946;2022-12-05T17:15:08;1.80;99.90
4615;DHT22;2320;51.362;6.946;2022-12-05T17:17:38;1.80;99.90
4615;DHT22;2320;51.362;6.946;2022-12-05T17:20:03;1.80;99.90
4615;DHT22;2320;51.362;6.946;2022-12-05T17:22:29;1.90;99.90
4615;DHT22;2320;51.362;6.946;2022-12-05T17:24:55;1.90;99.90
4615;DHT22;2320;51.362;6.946;2022-12-05T17:27:23;1.90;99.90
4615;DHT22;2320;51.362;6.946;2022-12-05T17:29:49;1.90;99.90
4615;DHT22;2320;51.362;6.946;2022-12-05T17:32:14;1.90;99.90
4615;DHT22;2320;51.362;6.946;2022-12-05T17:34:40;1.80;99.90
4615;DHT22;2320;51.362;6.946;2022-12-05T17:37:05;1.80;99.90
4615;DHT22;2320;51.362;6.946;2022-12-05T17:39:31;1.80;99.90
4615;DHT22;2320;51.362;6.946;2022-12-05T17:41:56;1.90;99.90
4615;DHT22;2320;51.362;6.946;2022-12-05T17:44:22;1.90;99.90
4615;DHT22;2320;51.362;6.946;2022-12-05T17:46:47;2.00;99.90
4615;DHT22;2320;51.362;6.946;2022-12-05T17:49:14;1.90;99.90
4615;DHT22;2320;51.362;6.946;2022-12-05T17:51:41;1.90;99.90
4615;DHT22;2320;51.362;6.946;2022-12-05T17:54:06;1.90;99.90
4615;DHT22;2320;51.362;6.946;2022-12-05T17:56:32;1.90;99.90
4615;DHT22;2320;51.362;6.946;2022-12-05T17:58:57;2.00;99.90
4615;DHT22;2320;51.362;6.946;2022-12-05T18:01:23;2.00;99.90
4615;DHT22;2320;51.362;6.946;2022-12-05T18:03:48;2.00;99.90
4615;DHT22;2320;51.362;6.946;2022-12-05T18:06:14;1.90;99.90
4615;DHT22;2320;51.362;6.946;2022-12-05T18:08:40;1.90;99.90
4615;DHT22;2320;51.362;6.946;2022-12-05T18:11:08;2.00;99.90
4615;DHT22;2320;51.362;6.946;2022-12-05T18:13:33;2.00;99.90
4615;DHT22;2320;51.362;6.946;2022-12-05T18:15:59;2.10;99.90
4615;DHT22;2320;51.362;6.946;2022-12-05T18:18:25;2.10;99.90
4615;DHT22;2320;51.362;6.946;2022-12-05T18:21:01;2.10;99.90
4615;DHT22;2320;51.362;6.946;2022-12-05T18:23:27;2.20;99.90
4615;DHT22;2320;51.362;6.946;2022-12-05T18:25:56;2.10;99.90
4615;DHT22;2320;51.362;6.946;2022-12-05T18:28:22;2.10;99.90
4615;DHT22;2320;51.362;6.946;2022-12-05T18:30:47;2.10;99.90
4615;DHT22;2320;51.362;6.946;2022-12-05T18:33:13;2.10;99.90
4615;DHT22;2320;51.362;6.946;2022-12-05T18:35:39;2.00;99.90
4615;DHT22;2320;51.362;6.946;2022-12-05T18:38:05;2.10;99.90
4615;DHT22;2320;51.362;6.946;2022-12-05T18:40:31;2.00;99.90
4615;DHT22;2320;51.362;6.946;2022-12-05T18:42:56;2.10;99.90
4615;DHT22;2320;51.362;6.946;2022-12-05T18:45:22;2.10;99.90
4615;DHT22;2320;51.362;6.946;2022-12-05T18:47:47;2.00;99.90
4615;DHT22;2320;51.362;6.946;2022-12-05T18:50:13;2.00;99.90
4615;DHT22;2320;51.362;6.946;2022-12-05T18:52:39;2.00;99.90
4615;DHT22;2320;51.362;6.946;2022-12-05T18:55:05;2.00;99.90
4615;DHT22;2320;51.362;6.946;2022-12-05T18:57:30;2.00;99.90